createdAt,value
2023-02-06T00:01:58.254Z,23.80
2023-02-06T00:07:01.132Z,19.40
2023-02-06T00:12:03.989Z,16.00
2023-02-06T00:17:06.836Z,18.80
2023-02-06T00:22:10.543Z,20.80
2023-02-06T00:27:13.432Z,20.70
2023-02-06T00:32:16.339Z,24.40
2023-02-06T00:37:19.201Z,21.80
2023-02-06T00:42:21.973Z,20.90
2023-02-06T00:47:24.747Z,19.80
2023-02-06T00:52:27.514Z,19.60
2023-02-06T00:57:31.818Z,16.80
2023-02-06T01:02:34.970Z,17.50
2023-02-06T01:07:42.531Z,23.00
2023-02-06T01:12:45.368Z,17.50
2023-02-06T01:17:48.181Z,20.70
2023-02-06T01:22:51.316Z,19.90
2023-02-06T01:27:54.087Z,21.90
2023-02-06T01:32:56.872Z,20.80
2023-02-06T01:37:59.621Z,20.00
2023-02-06T01:43:02.424Z,16.80
2023-02-06T01:48:10.042Z,22.60
2023-02-06T01:53:14.953Z,22.40
2023-02-06T01:58:26.664Z,21.90
2023-02-06T02:03:32.272Z,19.70
2023-02-06T02:08:42.120Z,21.80
2023-02-06T02:13:45.885Z,20.40
2023-02-06T02:19:22.103Z,22.50
2023-02-06T02:24:47.459Z,15.50
2023-02-06T02:29:53.218Z,19.70
2023-02-06T02:34:58.926Z,18.80
2023-02-06T02:40:25.630Z,25.80
2023-02-06T02:45:47.918Z,22.70
2023-02-06T02:50:53.271Z,22.40
2023-02-06T02:55:56.057Z,22.20
2023-02-06T03:01:05.815Z,18.10
2023-02-06T03:06:35.158Z,21.80
2023-02-06T03:11:46.939Z,22.80
2023-02-06T03:16:54.676Z,20.60
2023-02-06T03:21:57.492Z,15.80
2023-02-06T03:27:05.086Z,16.80
2023-02-06T03:32:20.472Z,17.70
2023-02-06T03:37:25.011Z,21.00
2023-02-06T03:42:32.423Z,20.10
2023-02-06T03:47:38.080Z,21.30
2023-02-06T03:52:46.590Z,19.70
2023-02-06T03:57:53.852Z,19.90
2023-02-06T04:02:57.455Z,24.10
2023-02-06T04:08:00.668Z,22.60
2023-02-06T04:13:03.589Z,21.50
2023-02-06T04:18:06.442Z,21.80
2023-02-06T04:23:09.403Z,21.90
2023-02-06T04:28:12.535Z,24.70
2023-02-06T04:33:15.332Z,21.30
2023-02-06T04:38:18.190Z,19.50
2023-02-06T04:43:20.985Z,20.50
2023-02-06T04:48:23.784Z,21.20
2023-02-06T04:53:26.549Z,21.70
2023-02-06T04:58:29.382Z,19.00
2023-02-06T05:03:32.358Z,19.90
2023-02-06T05:08:35.243Z,17.00
2023-02-06T05:13:38.062Z,22.00
2023-02-06T05:18:42.117Z,19.20
2023-02-06T05:23:44.897Z,19.50
2023-02-06T05:28:47.729Z,18.40
2023-02-06T05:33:55.175Z,21.80
2023-02-06T05:38:57.915Z,20.40
2023-02-06T05:44:05.480Z,19.30
2023-02-06T05:49:08.648Z,20.00
2023-02-06T05:54:11.467Z,23.00
2023-02-06T05:59:14.281Z,20.40
2023-02-06T06:04:17.226Z,21.90
2023-02-06T06:09:20.272Z,20.70
2023-02-06T06:14:23.388Z,21.50
2023-02-06T06:19:26.187Z,19.90
2023-02-06T06:24:29.059Z,20.10
2023-02-06T06:29:31.853Z,16.20
2023-02-06T06:34:34.734Z,22.70
2023-02-06T06:39:37.552Z,23.00
2023-02-06T06:44:43.260Z,23.70
2023-02-06T06:49:47.178Z,21.50
2023-02-06T06:54:52.455Z,20.40
2023-02-06T06:59:56.944Z,20.20
2023-02-06T07:05:05.815Z,21.90
2023-02-06T07:10:11.783Z,21.30
2023-02-06T07:15:14.861Z,21.80
2023-02-06T07:20:17.809Z,20.60
2023-02-06T07:25:21.614Z,19.60
2023-02-06T07:30:26.968Z,19.40
2023-02-06T07:35:29.944Z,23.30
2023-02-06T07:40:44.033Z,21.70
2023-02-06T07:45:48.240Z,20.60
2023-02-06T07:51:08.852Z,19.80
2023-02-06T07:56:18.496Z,21.10
2023-02-06T08:07:19.010Z,15.40
2023-02-06T08:12:23.295Z,20.20
2023-02-06T08:17:34.332Z,17.50
2023-02-06T08:22:44.188Z,12.40
2023-02-06T08:28:02.156Z,10.90
2023-02-06T08:33:19.453Z,12.70
2023-02-06T08:38:23.542Z,13.60
2023-02-06T08:43:26.922Z,15.30
2023-02-06T08:48:29.986Z,15.50
2023-02-06T08:53:38.604Z,15.30
2023-02-06T08:58:42.906Z,16.70
2023-02-06T09:03:47.565Z,15.80
2023-02-06T09:08:51.599Z,15.10
2023-02-06T09:13:58.541Z,11.80
2023-02-06T09:19:05.557Z,15.60
2023-02-06T09:24:10.781Z,16.40
2023-02-06T09:29:18.348Z,15.60
2023-02-06T09:34:22.014Z,15.70
2023-02-06T09:39:26.801Z,16.70
2023-02-06T09:44:32.374Z,14.70
2023-02-06T09:49:51.495Z,16.90
2023-02-06T09:55:07.833Z,19.50
2023-02-06T10:00:55.498Z,22.20
2023-02-06T10:06:25.298Z,21.00
2023-02-06T10:12:05.895Z,20.70
2023-02-06T10:17:23.366Z,17.50
2023-02-06T10:22:45.765Z,17.50
2023-02-06T10:27:54.931Z,17.00
2023-02-06T10:33:25.265Z,15.10
2023-02-06T10:38:34.133Z,15.00
2023-02-06T10:43:40.877Z,16.10
2023-02-06T10:48:55.811Z,16.80
2023-02-06T10:54:11.763Z,15.70
2023-02-06T10:59:38.266Z,11.20
2023-02-06T11:04:47.933Z,15.10
2023-02-06T11:09:52.620Z,14.80
2023-02-06T11:15:00.904Z,12.00
2023-02-06T11:20:21.919Z,14.00
2023-02-06T11:25:29.269Z,13.20
2023-02-06T11:30:36.473Z,15.00
2023-02-06T11:35:49.467Z,14.70
2023-02-06T11:41:01.370Z,11.20
2023-02-06T11:46:16.831Z,10.20
2023-02-06T11:51:20.534Z,12.30
2023-02-06T11:56:24.384Z,11.90
2023-02-06T12:01:37.709Z,10.00
2023-02-06T12:06:42.836Z,9.30
2023-02-06T12:12:29.463Z,10.40
2023-02-06T12:23:16.344Z,7.70
2023-02-06T12:28:26.689Z,12.80
2023-02-06T12:33:44.543Z,8.40
2023-02-06T12:39:15.332Z,12.00
2023-02-06T12:50:15.608Z,17.10
2023-02-06T13:00:59.362Z,14.60
2023-02-06T13:06:18.540Z,15.00
2023-02-06T13:11:33.822Z,14.90
2023-02-06T13:16:52.296Z,12.80
2023-02-06T13:22:16.822Z,14.30
2023-02-06T13:27:25.554Z,17.20
2023-02-06T13:32:43.694Z,14.40
2023-02-06T13:37:50.905Z,11.10
2023-02-06T13:43:11.049Z,17.00
2023-02-06T13:48:46.692Z,19.40
2023-02-06T13:54:28.401Z,16.40
2023-02-06T13:59:36.419Z,16.70
2023-02-06T14:04:40.618Z,19.50
2023-02-06T14:10:02.548Z,26.40
2023-02-06T14:15:38.248Z,23.40
2023-02-06T14:21:04.638Z,17.50
2023-02-06T14:26:30.095Z,15.50
2023-02-06T14:32:01.331Z,12.60
2023-02-06T14:37:41.531Z,17.20
2023-02-06T14:42:46.317Z,17.40
2023-02-06T14:47:50.125Z,21.90
2023-02-06T14:52:58.291Z,21.50
2023-02-06T14:58:02.009Z,21.00
2023-02-06T15:03:08.692Z,20.40
2023-02-06T15:08:20.412Z,17.40
2023-02-06T15:13:25.663Z,17.50
2023-02-06T15:18:28.581Z,14.20
2023-02-06T15:23:50.097Z,14.80
2023-02-06T15:29:01.508Z,15.50
2023-02-06T15:34:04.446Z,16.90
2023-02-06T15:39:09.627Z,13.20
2023-02-06T15:44:23.163Z,12.30
2023-02-06T15:49:44.686Z,8.80
2023-02-06T15:54:57.550Z,9.80
2023-02-06T16:00:01.280Z,8.60
2023-02-06T16:05:06.085Z,8.40
2023-02-06T16:10:08.939Z,6.30
2023-02-06T16:15:36.965Z,11.70
2023-02-06T16:20:44.136Z,9.90
2023-02-06T16:26:03.489Z,11.30
2023-02-06T16:31:06.713Z,6.80
2023-02-06T16:36:13.617Z,15.70
2023-02-06T16:41:38.267Z,22.00
2023-02-06T16:46:42.680Z,24.00
2023-02-06T16:51:47.069Z,23.20
2023-02-06T16:56:53.040Z,21.00
2023-02-06T17:01:56.097Z,16.60
2023-02-06T17:06:58.877Z,18.50
2023-02-06T17:12:08.850Z,17.40
2023-02-06T17:17:14.476Z,19.70
2023-02-06T17:22:23.142Z,15.10
2023-02-06T17:27:29.213Z,15.20
2023-02-06T17:32:32.700Z,17.70
2023-02-06T17:37:36.556Z,17.70
2023-02-06T17:42:39.602Z,18.20
2023-02-06T17:47:43.609Z,21.40
2023-02-06T17:52:47.658Z,22.70
2023-02-06T17:57:52.157Z,30.00
2023-02-06T18:03:01.386Z,26.50
2023-02-06T18:08:04.580Z,28.80
2023-02-06T18:13:07.497Z,27.40
2023-02-06T18:18:13.358Z,23.10
2023-02-06T18:23:19.839Z,20.80
2023-02-06T18:28:27.302Z,19.50
2023-02-06T18:33:32.653Z,17.90
2023-02-06T18:38:37.443Z,19.40
2023-02-06T18:43:42.038Z,21.20
2023-02-06T18:48:44.988Z,21.60
2023-02-06T18:53:49.603Z,22.90
2023-02-06T18:58:52.443Z,23.90
2023-02-06T19:03:55.425Z,24.30
2023-02-06T19:09:02.481Z,19.40
2023-02-06T19:14:09.462Z,19.90
2023-02-06T19:19:12.869Z,19.00
2023-02-06T19:24:20.998Z,12.30
2023-02-06T19:29:35.110Z,18.80
2023-02-06T19:34:40.481Z,17.10
2023-02-06T19:39:44.680Z,21.40
2023-02-06T19:44:53.892Z,19.60
2023-02-06T19:49:56.736Z,19.50
2023-02-06T19:54:59.734Z,20.30
2023-02-06T20:00:05.465Z,19.60
2023-02-06T20:05:09.671Z,18.70
2023-02-06T20:10:12.428Z,19.90
2023-02-06T20:15:16.961Z,19.70
2023-02-06T20:20:19.912Z,22.80
2023-02-06T20:25:24.127Z,25.30
2023-02-06T20:30:27.522Z,26.40
2023-02-06T20:35:30.437Z,26.80
2023-02-06T20:40:33.728Z,22.10
2023-02-06T20:45:37.173Z,22.20
2023-02-06T20:50:39.949Z,22.20
2023-02-06T20:55:45.945Z,19.60
2023-02-06T21:00:50.294Z,17.40
2023-02-06T21:05:58.094Z,22.50
2023-02-06T21:11:01.107Z,19.00
2023-02-06T21:16:04.093Z,17.60
2023-02-06T21:21:10.687Z,16.20
2023-02-06T21:26:17.344Z,17.80
2023-02-06T21:31:24.110Z,18.90
2023-02-06T21:36:29.609Z,16.20
2023-02-06T21:41:32.541Z,16.80
2023-02-06T21:46:35.531Z,20.20
2023-02-06T21:51:39.221Z,18.90
2023-02-06T21:56:42.031Z,16.40
2023-02-06T22:01:44.855Z,20.60
2023-02-06T22:06:49.010Z,18.10
2023-02-06T22:11:52.013Z,18.40
2023-02-06T22:16:54.850Z,16.70
2023-02-06T22:21:57.623Z,16.90
2023-02-06T22:27:00.433Z,17.80
2023-02-06T22:32:05.355Z,16.80
2023-02-06T22:37:08.234Z,16.20
2023-02-06T22:42:11.016Z,13.70
2023-02-06T22:47:13.882Z,14.60
2023-02-06T22:52:35.508Z,15.80
2023-02-06T22:57:38.824Z,14.80
2023-02-06T23:02:41.685Z,14.80
2023-02-06T23:07:44.498Z,14.70
2023-02-06T23:12:47.353Z,14.80
2023-02-06T23:17:50.165Z,13.30
2023-02-06T23:22:53.063Z,12.90
2023-02-06T23:27:55.902Z,12.00
2023-02-06T23:32:58.720Z,11.10
2023-02-06T23:38:01.487Z,9.30
2023-02-06T23:43:06.089Z,7.40
2023-02-06T23:48:08.946Z,7.70
2023-02-06T23:53:11.912Z,10.70
2023-02-06T23:58:15.142Z,10.20
